^^
Meteo Knjazevac Station Historical Data
Daily Summary for August 21, 2021 Units:  Both    English   Metric
Daily Weekly Monthly Yearly Custom
  High: Low: Average:
Temperature: 41 °F /  5 °C 39 °F /  3.9 °C 40 °F /  4.4 °C
Dew Point: 40.7 °F /  4.8 °C 38.3 °F /  3.5 °C 39.5 °F /  4.2 °C
Humidity: 99% 95% 98%
Wind Speed: 5mph /  8km/h - 1.9mph /  3.1km/h
Wind Gust: 8mph /  12.9km/h - -
Wind- - WNW
Pressure: 30.26 in /  1024.6 hPa 30.20 in /  1022.6 hPa -
Precipitation: 0.00 in /  0 mm    
Historical Graphs
 
 
Tabular Data for August 21, 2021
Time Temperature Dew Point Pressure Wind Wind Speed Wind Gust Humidity Rainfall Rate (Hourly) solar Conditions
00:00 40.3 °F /  4.6 °C 39 °F /  3.9 °C 30.26in /  1024.6hPa West 5mph /  8km/h 6mph /  9.7km/h 95% 0.00in /  0mm 0 W/m2
00:10 40.5 °F /  4.7 °C 39.9 °F /  4.4 °C 30.26in /  1024.6hPa West 5mph /  8km/h 8mph /  12.9km/h 98% 0.00in /  0mm 0 W/m2
00:20 40.8 °F /  4.9 °C 40.3 °F /  4.6 °C 30.26in /  1024.6hPa West 5mph /  8km/h 7mph /  11.3km/h 98% 0.00in /  0mm 0 W/m2
00:30 40.8 °F /  4.9 °C 40.3 °F /  4.6 °C 30.25in /  1024.3hPa West 2mph /  3.2km/h 6mph /  9.7km/h 98% 0.00in /  0mm 0 W/m2
00:40 40.6 °F /  4.8 °C 40.1 °F /  4.5 °C 30.25in /  1024.3hPa West 3mph /  4.8km/h 5mph /  8km/h 98% 0.00in /  0mm 0 W/m2
00:50 40.6 °F /  4.8 °C 40.1 °F /  4.5 °C 30.25in /  1024.3hPa West 3mph /  4.8km/h 5mph /  8km/h 98% 0.00in /  0mm 0 W/m2
01:00 40.6 °F /  4.8 °C 40.1 °F /  4.5 °C 30.25in /  1024.3hPa West 2mph /  3.2km/h 5mph /  8km/h 98% 0.00in /  0mm 0 W/m2
01:10 40.3 °F /  4.6 °C 39.2 °F /  4 °C 30.25in /  1024.3hPa West 3mph /  4.8km/h 5mph /  8km/h 96% 0.00in /  0mm 0 W/m2
01:20 40.1 °F /  4.5 °C 39.6 °F /  4.2 °C 30.25in /  1024.3hPa West 2mph /  3.2km/h 5mph /  8km/h 98% 0.00in /  0mm 0 W/m2
01:30 40.1 °F /  4.5 °C 39.6 °F /  4.2 °C 30.25in /  1024.3hPa West 2mph /  3.2km/h 5mph /  8km/h 98% 0.00in /  0mm 0 W/m2
01:40 40.3 °F /  4.6 °C 40 °F /  4.4 °C 30.25in /  1024.3hPa West 3mph /  4.8km/h 6mph /  9.7km/h 99% 0.00in /  0mm 0 W/m2
01:50 40.1 °F /  4.5 °C 39.6 °F /  4.2 °C 30.25in /  1024.3hPa WNW 2mph /  3.2km/h 6mph /  9.7km/h 98% 0.00in /  0mm 0 W/m2
02:00 40.1 °F /  4.5 °C 39.6 °F /  4.2 °C 30.25in /  1024.3hPa WNW 2mph /  3.2km/h 6mph /  9.7km/h 98% 0.00in /  0mm 0 W/m2
02:10 39.7 °F /  4.3 °C 39.2 °F /  4 °C 30.25in /  1024.3hPa West 1mph /  1.6km/h 4mph /  6.4km/h 98% 0.00in /  0mm 0 W/m2
02:20 39.7 °F /  4.3 °C 39.2 °F /  4 °C 30.25in /  1024.3hPa West 1mph /  1.6km/h 6mph /  9.7km/h 98% 0.00in /  0mm 0 W/m2
02:30 39.7 °F /  4.3 °C 39.5 °F /  4.2 °C 30.24in /  1023.9hPa WNW 1mph /  1.6km/h 4mph /  6.4km/h 99% 0.00in /  0mm 0 W/m2
02:40 39.9 °F /  4.4 °C 39.7 °F /  4.3 °C 30.24in /  1023.9hPa WNW 2mph /  3.2km/h 4mph /  6.4km/h 99% 0.00in /  0mm 0 W/m2
02:50 40.1 °F /  4.5 °C 39.8 °F /  4.3 °C 30.24in /  1023.9hPa NW 1mph /  1.6km/h 6mph /  9.7km/h 99% 0.00in /  0mm 0 W/m2
03:00 40.1 °F /  4.5 °C 39.8 °F /  4.3 °C 30.24in /  1023.9hPa Calm   3mph /  4.8km/h 99% 0.00in /  0mm 0 W/m2
03:10 39.9 °F /  4.4 °C 39.4 °F /  4.1 °C 30.23in /  1023.6hPa NNW 2mph /  3.2km/h 3mph /  4.8km/h 98% 0.00in /  0mm 0 W/m2
03:20 39.7 °F /  4.3 °C 39.2 °F /  4 °C 30.23in /  1023.6hPa WNW 1mph /  1.6km/h 3mph /  4.8km/h 98% 0.00in /  0mm 0 W/m2
03:30 39.9 °F /  4.4 °C 39.7 °F /  4.3 °C 30.23in /  1023.6hPa WNW 2mph /  3.2km/h 5mph /  8km/h 99% 0.00in /  0mm 0 W/m2
03:40 40.3 °F /  4.6 °C 40 °F /  4.4 °C 30.22in /  1023.2hPa WNW 3mph /  4.8km/h 5mph /  8km/h 99% 0.00in /  0mm 0 W/m2
03:50 40.5 °F /  4.7 °C 40.2 °F /  4.6 °C 30.22in /  1023.2hPa NW 1mph /  1.6km/h 5mph /  8km/h 99% 0.00in /  0mm 0 W/m2
04:00 41 °F /  5 °C 40.7 °F /  4.8 °C 30.22in /  1023.2hPa Calm   5mph /  8km/h 99% 0.00in /  0mm 0 W/m2
04:10 40.3 °F /  4.6 °C 39.8 °F /  4.3 °C 30.22in /  1023.2hPa NW 1mph /  1.6km/h 3mph /  4.8km/h 98% 0.00in /  0mm 0 W/m2
04:20 39.7 °F /  4.3 °C 39.2 °F /  4 °C 30.22in /  1023.2hPa WNW 2mph /  3.2km/h 4mph /  6.4km/h 98% 0.00in /  0mm 0 W/m2
04:30 39.4 °F /  4.1 °C 38.3 °F /  3.5 °C 30.22in /  1023.2hPa NW 1mph /  1.6km/h 3mph /  4.8km/h 96% 0.00in /  0mm 0 W/m2
04:40 39.2 °F /  4 °C 38.7 °F /  3.7 °C 30.21in /  1022.9hPa West 2mph /  3.2km/h 6mph /  9.7km/h 98% 0.00in /  0mm 0 W/m2
04:50 39 °F /  3.9 °C 38.8 °F /  3.8 °C 30.21in /  1022.9hPa West 1mph /  1.6km/h 4mph /  6.4km/h 99% 0.00in /  0mm 0 W/m2
05:00 39.2 °F /  4 °C 38.9 °F /  3.8 °C 30.21in /  1022.9hPa WNW 2mph /  3.2km/h 6mph /  9.7km/h 99% 0.00in /  0mm 0 W/m2
05:10 39.6 °F /  4.2 °C 39.3 °F /  4.1 °C 30.21in /  1022.9hPa NW 1mph /  1.6km/h 5mph /  8km/h 99% 0.00in /  0mm 0 W/m2
05:20 39.6 °F /  4.2 °C 39.3 °F /  4.1 °C 30.21in /  1022.9hPa NNW 2mph /  3.2km/h 3mph /  4.8km/h 99% 0.00in /  0mm 0 W/m2
05:30 39.6 °F /  4.2 °C 39.3 °F /  4.1 °C 30.21in /  1022.9hPa NW 1mph /  1.6km/h 3mph /  4.8km/h 99% 0.00in /  0mm 0 W/m2
05:40 39.2 °F /  4 °C 38.9 °F /  3.8 °C 30.20in /  1022.6hPa WNW 1mph /  1.6km/h 3mph /  4.8km/h 99% 0.00in /  0mm 0 W/m2
05:50 39 °F /  3.9 °C 38.8 °F /  3.8 °C 30.20in /  1022.6hPa West 2mph /  3.2km/h 5mph /  8km/h 99% 0.00in /  0mm 0 W/m2
06:00 39.4 °F /  4.1 °C 39.1 °F /  3.9 °C 30.20in /  1022.6hPa NW 2mph /  3.2km/h 5mph /  8km/h 99% 0.00in /  0mm 0 W/m2
Knjazevac, Serbia
Compliments of Weather Underground - 2 mb